CYPE

Details ICAO CYPE (YPE)
Name PEACE RIVER
Region Canada
Timezone America/Edmonton (UTC-6.0)
Plans Departing 8
Arriving 9
Stats Elevation 1,873 ft / 571 m (AMSL)
Location 56.226804° -117.442782°
Runways 2
Magnetic Variation 16.473° E
Sunrise 2018-05-21 11:26:16 UTC / 2018-05-21 05:26:16 Local
Sunset 2018-05-22 04:09:21 UTC / 2018-05-21 22:09:21 Local
Advertisement - Login to hide

Runways

ID Width Length Bearing (true) Bearing (mag) Surface Threshold Offset Overrun Length
04 150 ft / 46 m 5,073 ft / 1,546 m 61.32° 44.85° Asphalt 0 ft / 0 m 0 ft / 0 m
08 150 ft / 46 m 1,904 ft / 580 m 102.32° 85.85° Grass 0 ft / 0 m 0 ft / 0 m
22 150 ft / 46 m 5,073 ft / 1,546 m 241.34° 224.87° Asphalt 0 ft / 0 m 0 ft / 0 m
26 150 ft / 46 m 1,904 ft / 580 m 282.33° 265.86° Grass 0 ft / 0 m 0 ft / 0 m

Map

Weather


0- 5 10 15 20 25 30 35+ Temperature / ° C

Clouds and Precipitation
Forecast for 2018-05-21 06:00 UTC. Updated 2 hours ago

Ground ~20,000 ft ~40,000 ft Winds

METAR

CYPE 210700Z 20005KT 15SM FEW100 SCT250 12/05 A2974 RMK AC1CI3 SLP076 DENSITY ALT 2200FT

TAF

TAF CYPE 210638Z 2107/2119 27008KT P6SM FEW120 BKN220 FM211400 24008KT P6SM SCT220 BECMG 2115/2117 26015KT RMK NXT FCST BY 211300Z

Frequencies

Tower 122.30 MHz MF
Warning: Do not use this data for real-world aviation or navigation. No guarantee of current accuracy is given.